sensor_id;sensor_type;location;lat;lon;timestamp;pressure;altitude;pressure_sealevel;temperature;humidity
30708;BME280;17458;48.958;8.284;2024-03-23T00:55:55;99609.84;;;14.08;65.17
30708;BME280;17458;48.958;8.284;2024-03-23T00:58:39;99580.53;;;14.11;64.84
30708;BME280;17458;48.958;8.284;2024-03-23T01:01:22;99571.66;;;14.12;64.42
30708;BME280;17458;48.958;8.284;2024-03-23T01:04:06;99573.16;;;13.99;65.05
30708;BME280;17458;48.958;8.284;2024-03-23T01:06:50;99573.03;;;13.95;65.14
30708;BME280;17458;48.958;8.284;2024-03-23T01:09:34;99582.88;;;13.97;65.12
30708;BME280;17458;48.958;8.284;2024-03-23T01:12:18;99558.66;;;13.88;65.31
30708;BME280;17458;48.958;8.284;2024-03-23T01:15:02;99563.06;;;13.86;65.41
30708;BME280;17458;48.958;8.284;2024-03-23T01:17:47;99563.84;;;13.82;65.36
30708;BME280;17458;48.958;8.284;2024-03-23T01:20:31;99568.41;;;13.86;65.05
30708;BME280;17458;48.958;8.284;2024-03-23T01:23:15;99567.06;;;13.69;65.61
30708;BME280;17458;48.958;8.284;2024-03-23T01:25:59;99568.09;;;13.74;66.08
30708;BME280;17458;48.958;8.284;2024-03-23T01:28:43;99560.78;;;13.67;66.19
30708;BME280;17458;48.958;8.284;2024-03-23T01:31:27;99557.19;;;13.65;66.22
30708;BME280;17458;48.958;8.284;2024-03-23T01:34:11;99553.91;;;13.76;66.11
30708;BME280;17458;48.958;8.284;2024-03-23T01:36:55;99547.56;;;13.71;66.03
30708;BME280;17458;48.958;8.284;2024-03-23T01:39:39;99547.75;;;13.79;66.06
30708;BME280;17458;48.958;8.284;2024-03-23T01:42:23;99539.66;;;13.76;65.78
30708;BME280;17458;48.958;8.284;2024-03-23T01:45:08;99534.56;;;13.85;65.50
30708;BME280;17458;48.958;8.284;2024-03-23T01:47:52;99540.94;;;13.92;65.31
30708;BME280;17458;48.958;8.284;2024-03-23T01:50:37;99542.19;;;14.07;64.65
30708;BME280;17458;48.958;8.284;2024-03-23T01:53:21;99538.50;;;14.01;64.68
30708;BME280;17458;48.958;8.284;2024-03-23T01:56:06;99532.41;;;14.08;64.10
30708;BME280;17458;48.958;8.284;2024-03-23T01:58:51;99523.72;;;14.18;63.87
30708;BME280;17458;48.958;8.284;2024-03-23T02:01:35;99522.75;;;14.13;64.54
30708;BME280;17458;48.958;8.284;2024-03-23T02:04:22;99517.56;;;14.20;63.95
30708;BME280;17458;48.958;8.284;2024-03-23T02:07:06;99516.69;;;14.22;63.82
30708;BME280;17458;48.958;8.284;2024-03-23T02:09:52;99515.63;;;14.13;64.57
30708;BME280;17458;48.958;8.284;2024-03-23T02:12:37;99507.94;;;14.27;64.07
30708;BME280;17458;48.958;8.284;2024-03-23T02:15:20;99526.78;;;14.35;63.90
30708;BME280;17458;48.958;8.284;2024-03-23T02:18:05;99521.44;;;14.35;63.49
30708;BME280;17458;48.958;8.284;2024-03-23T02:20:49;99525.47;;;14.14;65.05
30708;BME280;17458;48.958;8.284;2024-03-23T02:23:33;99505.28;;;14.29;64.85
30708;BME280;17458;48.958;8.284;2024-03-23T02:26:16;99500.81;;;14.28;64.28
30708;BME280;17458;48.958;8.284;2024-03-23T02:29:01;99506.88;;;14.20;65.13
30708;BME280;17458;48.958;8.284;2024-03-23T02:31:44;99500.50;;;14.12;65.49
30708;BME280;17458;48.958;8.284;2024-03-23T02:34:28;99496.16;;;14.19;64.78
30708;BME280;17458;48.958;8.284;2024-03-23T02:37:12;99500.00;;;14.32;64.96
30708;BME280;17458;48.958;8.284;2024-03-23T02:39:56;99494.59;;;14.27;65.23
30708;BME280;17458;48.958;8.284;2024-03-23T02:42:41;99494.44;;;14.21;64.97
30708;BME280;17458;48.958;8.284;2024-03-23T02:45:24;99506.03;;;14.22;65.18
30708;BME280;17458;48.958;8.284;2024-03-23T02:48:08;99503.88;;;14.05;65.97
30708;BME280;17458;48.958;8.284;2024-03-23T02:50:52;99508.63;;;14.18;65.18
30708;BME280;17458;48.958;8.284;2024-03-23T02:53:37;99498.28;;;14.35;64.89
30708;BME280;17458;48.958;8.284;2024-03-23T02:56:22;99500.44;;;14.11;66.04
30708;BME280;17458;48.958;8.284;2024-03-23T02:59:06;99494.25;;;14.12;65.92
30708;BME280;17458;48.958;8.284;2024-03-23T03:01:50;99492.28;;;14.03;66.12
30708;BME280;17458;48.958;8.284;2024-03-23T03:04:34;99489.31;;;14.32;65.34
30708;BME280;17458;48.958;8.284;2024-03-23T03:07:18;99483.91;;;14.27;65.58
30708;BME280;17458;48.958;8.284;2024-03-23T03:10:02;99494.50;;;14.24;65.36
30708;BME280;17458;48.958;8.284;2024-03-23T03:12:47;99505.13;;;14.21;65.66
30708;BME280;17458;48.958;8.284;2024-03-23T03:15:31;99506.19;;;14.29;65.38
30708;BME280;17458;48.958;8.284;2024-03-23T03:18:15;99496.47;;;14.33;64.86
30708;BME280;17458;48.958;8.284;2024-03-23T03:20:59;99489.69;;;14.48;63.91
30708;BME280;17458;48.958;8.284;2024-03-23T03:23:43;99499.56;;;14.51;63.54
30708;BME280;17458;48.958;8.284;2024-03-23T03:26:28;99492.41;;;14.50;63.41
30708;BME280;17458;48.958;8.284;2024-03-23T03:29:12;99480.88;;;14.52;63.03
30708;BME280;17458;48.958;8.284;2024-03-23T03:31:56;99476.44;;;14.53;63.15
30708;BME280;17458;48.958;8.284;2024-03-23T03:34:40;99484.84;;;14.29;63.49
30708;BME280;17458;48.958;8.284;2024-03-23T03:37:24;99479.84;;;14.46;63.20
30708;BME280;17458;48.958;8.284;2024-03-23T03:40:08;99494.69;;;14.33;63.22
30708;BME280;17458;48.958;8.284;2024-03-23T03:42:52;99488.78;;;14.45;63.48
30708;BME280;17458;48.958;8.284;2024-03-23T03:45:37;99494.16;;;14.09;63.84
30708;BME280;17458;48.958;8.284;2024-03-23T03:48:20;99498.38;;;13.98;64.29
30708;BME280;17458;48.958;8.284;2024-03-23T03:51:05;99485.94;;;13.98;64.58
30708;BME280;17458;48.958;8.284;2024-03-23T03:53:49;99486.38;;;13.79;64.18
30708;BME280;17458;48.958;8.284;2024-03-23T03:56:33;99485.84;;;13.95;64.49
30708;BME280;17458;48.958;8.284;2024-03-23T03:59:17;99482.28;;;13.95;63.73
30708;BME280;17458;48.958;8.284;2024-03-23T04:02:01;99483.19;;;13.95;64.36
30708;BME280;17458;48.958;8.284;2024-03-23T04:04:45;99483.78;;;13.82;64.36
30708;BME280;17458;48.958;8.284;2024-03-23T04:07:29;99484.75;;;13.86;64.24
30708;BME280;17458;48.958;8.284;2024-03-23T04:10:13;99480.09;;;13.77;64.29
30708;BME280;17458;48.958;8.284;2024-03-23T04:12:57;99479.19;;;13.76;64.40
30708;BME280;17458;48.958;8.284;2024-03-23T04:15:41;99478.78;;;13.97;64.27
30708;BME280;17458;48.958;8.284;2024-03-23T04:18:25;99489.63;;;14.03;63.89
30708;BME280;17458;48.958;8.284;2024-03-23T04:21:09;99476.19;;;14.00;64.86
30708;BME280;17458;48.958;8.284;2024-03-23T04:23:53;99485.06;;;13.60;65.38
30708;BME280;17458;48.958;8.284;2024-03-23T04:26:41;99505.47;;;13.24;67.17
30708;BME280;17458;48.958;8.284;2024-03-23T04:29:25;99500.91;;;13.18;67.94
30708;BME280;17458;48.958;8.284;2024-03-23T04:32:10;99506.91;;;13.12;67.75
30708;BME280;17458;48.958;8.284;2024-03-23T04:34:54;99511.84;;;12.97;68.46
30708;BME280;17458;48.958;8.284;2024-03-23T04:37:38;99514.91;;;13.12;68.17
30708;BME280;17458;48.958;8.284;2024-03-23T04:40:26;99504.88;;;13.02;68.73
30708;BME280;17458;48.958;8.284;2024-03-23T04:43:10;99507.13;;;12.87;69.01
30708;BME280;17458;48.958;8.284;2024-03-23T04:45:54;99505.16;;;13.13;68.29
30708;BME280;17458;48.958;8.284;2024-03-23T04:48:38;99496.47;;;13.19;68.83
30708;BME280;17458;48.958;8.284;2024-03-23T04:51:23;99492.16;;;12.92;69.88
30708;BME280;17458;48.958;8.284;2024-03-23T04:54:07;99500.94;;;12.88;69.69
30708;BME280;17458;48.958;8.284;2024-03-23T04:56:51;99514.94;;;12.81;69.78
30708;BME280;17458;48.958;8.284;2024-03-23T04:59:35;99518.69;;;12.56;70.02
30708;BME280;17458;48.958;8.284;2024-03-23T05:02:20;99513.84;;;12.73;68.33
30708;BME280;17458;48.958;8.284;2024-03-23T05:05:04;99519.09;;;12.70;67.95
30708;BME280;17458;48.958;8.284;2024-03-23T05:07:51;99539.03;;;12.84;67.23
30708;BME280;17458;48.958;8.284;2024-03-23T05:10:35;99547.34;;;12.65;66.69
30708;BME280;17458;48.958;8.284;2024-03-23T05:13:19;99533.06;;;12.61;65.74
30708;BME280;17458;48.958;8.284;2024-03-23T05:16:03;99567.34;;;12.21;64.11
30708;BME280;17458;48.958;8.284;2024-03-23T05:18:47;99568.16;;;12.18;63.95
30708;BME280;17458;48.958;8.284;2024-03-23T05:21:31;99573.81;;;12.29;63.95
30708;BME280;17458;48.958;8.284;2024-03-23T05:24:15;99570.38;;;12.04;63.66
30708;BME280;17458;48.958;8.284;2024-03-23T05:26:59;99568.06;;;12.15;63.70
30708;BME280;17458;48.958;8.284;2024-03-23T05:29:43;99578.50;;;12.09;63.65
30708;BME280;17458;48.958;8.284;2024-03-23T05:32:27;99598.38;;;11.92;64.10
30708;BME280;17458;48.958;8.284;2024-03-23T05:35:11;99609.69;;;11.86;64.04
30708;BME280;17458;48.958;8.284;2024-03-23T05:37:55;99600.66;;;11.81;64.93
30708;BME280;17458;48.958;8.284;2024-03-23T05:40:39;99613.03;;;12.06;64.91
30708;BME280;17458;48.958;8.284;2024-03-23T05:43:24;99613.50;;;11.94;64.81
30708;BME280;17458;48.958;8.284;2024-03-23T05:46:08;99629.28;;;11.88;65.71
30708;BME280;17458;48.958;8.284;2024-03-23T05:48:52;99647.63;;;11.81;66.17
30708;BME280;17458;48.958;8.284;2024-03-23T05:51:44;99646.94;;;11.61;65.66
30708;BME280;17458;48.958;8.284;2024-03-23T05:54:28;99655.88;;;11.63;66.34
30708;BME280;17458;48.958;8.284;2024-03-23T05:57:12;99654.19;;;11.66;66.62
30708;BME280;17458;48.958;8.284;2024-03-23T05:59:56;99658.72;;;11.44;67.51
30708;BME280;17458;48.958;8.284;2024-03-23T06:02:40;99670.81;;;11.59;67.20
30708;BME280;17458;48.958;8.284;2024-03-23T06:05:24;99681.63;;;11.40;67.27
30708;BME280;17458;48.958;8.284;2024-03-23T06:08:07;99683.13;;;11.32;66.62
30708;BME280;17458;48.958;8.284;2024-03-23T06:10:53;99678.44;;;11.25;66.86
30708;BME280;17458;48.958;8.284;2024-03-23T06:13:37;99688.78;;;11.17;66.76
30708;BME280;17458;48.958;8.284;2024-03-23T06:16:21;99698.03;;;11.52;66.34
30708;BME280;17458;48.958;8.284;2024-03-23T06:19:07;99705.00;;;11.49;66.18
30708;BME280;17458;48.958;8.284;2024-03-23T06:21:51;99724.63;;;11.28;66.92
30708;BME280;17458;48.958;8.284;2024-03-23T06:24:35;99723.66;;;11.26;66.84
30708;BME280;17458;48.958;8.284;2024-03-23T06:27:19;99724.69;;;11.30;66.99
30708;BME280;17458;48.958;8.284;2024-03-23T06:30:03;99736.19;;;11.29;66.87
30708;BME280;17458;48.958;8.284;2024-03-23T06:32:47;99741.69;;;11.33;66.75
30708;BME280;17458;48.958;8.284;2024-03-23T06:35:31;99746.59;;;11.23;66.58
30708;BME280;17458;48.958;8.284;2024-03-23T06:38:15;99744.16;;;11.29;67.03
30708;BME280;17458;48.958;8.284;2024-03-23T06:40:59;99767.75;;;11.20;67.32
30708;BME280;17458;48.958;8.284;2024-03-23T06:43:43;99777.28;;;11.15;66.30
30708;BME280;17458;48.958;8.284;2024-03-23T06:46:27;99776.44;;;11.40;65.85
30708;BME280;17458;48.958;8.284;2024-03-23T06:49:12;99777.16;;;11.12;66.44
30708;BME280;17458;48.958;8.284;2024-03-23T06:51:55;99780.31;;;10.79;66.78
30708;BME280;17458;48.958;8.284;2024-03-23T06:54:39;99791.94;;;11.27;67.02
30708;BME280;17458;48.958;8.284;2024-03-23T06:57:23;99800.47;;;10.96;66.63
30708;BME280;17458;48.958;8.284;2024-03-23T07:00:08;99802.59;;;11.05;66.97
30708;BME280;17458;48.958;8.284;2024-03-23T07:02:53;99815.63;;;10.99;66.93
30708;BME280;17458;48.958;8.284;2024-03-23T07:05:37;99826.75;;;10.89;66.68
30708;BME280;17458;48.958;8.284;2024-03-23T07:08:21;99822.97;;;10.84;67.11
30708;BME280;17458;48.958;8.284;2024-03-23T07:11:06;99833.78;;;10.66;67.46
30708;BME280;17458;48.958;8.284;2024-03-23T07:13:50;99829.25;;;12.00;78.02
30708;BME280;17458;48.958;8.284;2024-03-23T07:16:35;99838.06;;;12.50;63.03
30708;BME280;17458;48.958;8.284;2024-03-23T07:19:19;99841.06;;;13.41;61.43
30708;BME280;17458;48.958;8.284;2024-03-23T07:22:03;99863.88;;;12.78;60.68
30708;BME280;17458;48.958;8.284;2024-03-23T07:24:47;99887.81;;;11.32;65.17
30708;BME280;17458;48.958;8.284;2024-03-23T07:27:30;99877.41;;;10.93;67.21
30708;BME280;17458;48.958;8.284;2024-03-23T07:30:14;99891.41;;;10.89;67.50
30708;BME280;17458;48.958;8.284;2024-03-23T07:32:58;99901.13;;;10.89;66.67
30708;BME280;17458;48.958;8.284;2024-03-23T07:35:42;99903.63;;;10.86;66.79
30708;BME280;17458;48.958;8.284;2024-03-23T07:38:27;99905.22;;;10.60;67.46
30708;BME280;17458;48.958;8.284;2024-03-23T07:41:15;99910.63;;;11.05;65.84
30708;BME280;17458;48.958;8.284;2024-03-23T07:44:01;99926.47;;;11.46;65.34
30708;BME280;17458;48.958;8.284;2024-03-23T07:46:45;99937.41;;;11.31;64.58
30708;BME280;17458;48.958;8.284;2024-03-23T07:49:28;99933.88;;;11.10;63.38
30708;BME280;17458;48.958;8.284;2024-03-23T07:52:13;99948.75;;;11.05;64.64
30708;BME280;17458;48.958;8.284;2024-03-23T07:54:58;99968.41;;;11.31;62.70
30708;BME280;17458;48.958;8.284;2024-03-23T07:57:41;99965.75;;;11.10;62.36
30708;BME280;17458;48.958;8.284;2024-03-23T08:00:25;99969.38;;;11.55;62.30
30708;BME280;17458;48.958;8.284;2024-03-23T08:03:10;99980.38;;;11.42;61.05
30708;BME280;17458;48.958;8.284;2024-03-23T08:05:54;99984.75;;;10.78;59.68
30708;BME280;17458;48.958;8.284;2024-03-23T08:08:39;99986.22;;;10.50;60.39
30708;BME280;17458;48.958;8.284;2024-03-23T08:11:23;99993.34;;;10.51;59.58
30708;BME280;17458;48.958;8.284;2024-03-23T08:14:07;100000.06;;;10.24;59.27
30708;BME280;17458;48.958;8.284;2024-03-23T08:16:51;100003.34;;;10.18;58.83
30708;BME280;17458;48.958;8.284;2024-03-23T08:19:35;100000.81;;;10.41;59.00
30708;BME280;17458;48.958;8.284;2024-03-23T08:22:19;100010.38;;;10.56;59.21
30708;BME280;17458;48.958;8.284;2024-03-23T08:25:03;100009.47;;;11.39;57.84
30708;BME280;17458;48.958;8.284;2024-03-23T08:27:47;100009.19;;;11.11;58.00
30708;BME280;17458;48.958;8.284;2024-03-23T08:30:31;100020.81;;;11.99;56.89
30708;BME280;17458;48.958;8.284;2024-03-23T08:33:16;100002.41;;;12.05;54.29
30708;BME280;17458;48.958;8.284;2024-03-23T08:36:02;100008.50;;;11.79;53.37
30708;BME280;17458;48.958;8.284;2024-03-23T08:38:46;100007.03;;;11.87;53.81
30708;BME280;17458;48.958;8.284;2024-03-23T08:41:31;100008.81;;;12.10;52.20
30708;BME280;17458;48.958;8.284;2024-03-23T08:44:15;100018.63;;;12.59;51.34
30708;BME280;17458;48.958;8.284;2024-03-23T08:46:59;100016.13;;;12.39;51.82
30708;BME280;17458;48.958;8.284;2024-03-23T08:49:44;100019.88;;;12.68;50.65
30708;BME280;17458;48.958;8.284;2024-03-23T08:52:28;100030.66;;;12.97;49.07
30708;BME280;17458;48.958;8.284;2024-03-23T08:55:13;100023.72;;;12.29;49.46
30708;BME280;17458;48.958;8.284;2024-03-23T08:57:57;100023.19;;;13.12;49.86
30708;BME280;17458;48.958;8.284;2024-03-23T09:00:41;100030.09;;;13.31;46.95
30708;BME280;17458;48.958;8.284;2024-03-23T09:03:27;100035.78;;;12.91;45.22
30708;BME280;17458;48.958;8.284;2024-03-23T09:06:13;100033.78;;;13.10;45.84
30708;BME280;17458;48.958;8.284;2024-03-23T09:08:58;100041.97;;;12.90;47.54
30708;BME280;17458;48.958;8.284;2024-03-23T09:11:42;100046.47;;;12.43;48.92
30708;BME280;17458;48.958;8.284;2024-03-23T09:14:26;100043.59;;;12.38;48.66
30708;BME280;17458;48.958;8.284;2024-03-23T09:17:10;100050.03;;;12.21;48.95
30708;BME280;17458;48.958;8.284;2024-03-23T09:19:54;100040.03;;;12.14;50.50
30708;BME280;17458;48.958;8.284;2024-03-23T09:22:38;100037.47;;;11.95;49.56
30708;BME280;17458;48.958;8.284;2024-03-23T09:25:22;100042.06;;;12.21;50.15
30708;BME280;17458;48.958;8.284;2024-03-23T09:28:06;100041.19;;;11.98;49.29
30708;BME280;17458;48.958;8.284;2024-03-23T09:30:54;100033.03;;;11.51;49.58
30708;BME280;17458;48.958;8.284;2024-03-23T09:33:38;100027.97;;;11.78;48.63
30708;BME280;17458;48.958;8.284;2024-03-23T09:36:22;100032.63;;;11.62;49.38
30708;BME280;17458;48.958;8.284;2024-03-23T09:39:06;100033.53;;;12.07;50.25
30708;BME280;17458;48.958;8.284;2024-03-23T09:41:56;100035.59;;;12.15;50.80
30708;BME280;17458;48.958;8.284;2024-03-23T09:44:40;100052.25;;;11.66;51.00
30708;BME280;17458;48.958;8.284;2024-03-23T09:47:24;100075.63;;;10.71;55.94
30708;BME280;17458;48.958;8.284;2024-03-23T09:50:09;100108.59;;;8.95;65.39
30708;BME280;17458;48.958;8.284;2024-03-23T09:52:53;100119.84;;;8.42;69.07
30708;BME280;17458;48.958;8.284;2024-03-23T09:55:38;100119.25;;;8.97;70.09
30708;BME280;17458;48.958;8.284;2024-03-23T09:58:23;100110.31;;;9.29;71.67
30708;BME280;17458;48.958;8.284;2024-03-23T10:01:07;100112.91;;;9.45;70.79
30708;BME280;17458;48.958;8.284;2024-03-23T10:03:51;100103.19;;;9.28;70.90
30708;BME280;17458;48.958;8.284;2024-03-23T10:06:35;100094.06;;;9.74;70.65
30708;BME280;17458;48.958;8.284;2024-03-23T10:09:20;100066.84;;;9.96;69.50
30708;BME280;17458;48.958;8.284;2024-03-23T10:12:10;100071.47;;;10.37;69.34
30708;BME280;17458;48.958;8.284;2024-03-23T10:14:55;100066.66;;;10.69;67.10
30708;BME280;17458;48.958;8.284;2024-03-23T10:17:39;100063.97;;;11.07;66.55
30708;BME280;17458;48.958;8.284;2024-03-23T10:20:24;100074.03;;;10.95;66.66
30708;BME280;17458;48.958;8.284;2024-03-23T10:23:15;100083.34;;;10.64;67.88
30708;BME280;17458;48.958;8.284;2024-03-23T10:26:17;100099.34;;;10.66;70.49
30708;BME280;17458;48.958;8.284;2024-03-23T10:29:01;100104.25;;;10.97;68.83
30708;BME280;17458;48.958;8.284;2024-03-23T10:31:46;100098.84;;;10.75;68.47
30708;BME280;17458;48.958;8.284;2024-03-23T10:34:31;100097.41;;;10.83;68.02
30708;BME280;17458;48.958;8.284;2024-03-23T10:37:15;100097.13;;;11.36;69.37
30708;BME280;17458;48.958;8.284;2024-03-23T10:39:59;100096.97;;;11.33;66.65
30708;BME280;17458;48.958;8.284;2024-03-23T10:42:44;100093.81;;;11.21;66.50
30708;BME280;17458;48.958;8.284;2024-03-23T10:45:28;100099.44;;;11.08;67.63
30708;BME280;17458;48.958;8.284;2024-03-23T10:48:12;100087.63;;;11.43;65.56
30708;BME280;17458;48.958;8.284;2024-03-23T10:50:56;100087.19;;;11.32;64.90
30708;BME280;17458;48.958;8.284;2024-03-23T10:53:41;100089.72;;;11.08;61.98
30708;BME280;17458;48.958;8.284;2024-03-23T10:56:26;100082.44;;;11.04;60.94
30708;BME280;17458;48.958;8.284;2024-03-23T10:59:13;100090.63;;;11.50;63.46
30708;BME280;17458;48.958;8.284;2024-03-23T11:01:59;100087.63;;;11.63;63.44
30708;BME280;17458;48.958;8.284;2024-03-23T11:04:44;100075.81;;;12.22;61.73
30708;BME280;17458;48.958;8.284;2024-03-23T11:07:32;100072.94;;;12.16;59.97
30708;BME280;17458;48.958;8.284;2024-03-23T11:10:27;100071.69;;;12.06;60.17
30708;BME280;17458;48.958;8.284;2024-03-23T11:13:24;100079.38;;;12.23;59.96
30708;BME280;17458;48.958;8.284;2024-03-23T11:16:15;100069.19;;;12.11;59.67
30708;BME280;17458;48.958;8.284;2024-03-23T11:19:34;100071.13;;;12.15;59.77
30708;BME280;17458;48.958;8.284;2024-03-23T11:25:26;100054.91;;;12.09;58.26
30708;BME280;17458;48.958;8.284;2024-03-23T11:28:11;100057.22;;;12.46;58.53
30708;BME280;17458;48.958;8.284;2024-03-23T11:30:56;100061.66;;;13.44;60.20
30708;BME280;17458;48.958;8.284;2024-03-23T11:33:39;100054.66;;;13.22;57.15
30708;BME280;17458;48.958;8.284;2024-03-23T11:36:24;100058.53;;;13.06;57.61
30708;BME280;17458;48.958;8.284;2024-03-23T11:39:17;100054.63;;;12.48;57.47
30708;BME280;17458;48.958;8.284;2024-03-23T11:42:02;100048.25;;;11.55;60.48
30708;BME280;17458;48.958;8.284;2024-03-23T11:44:46;100051.47;;;11.68;60.76
30708;BME280;17458;48.958;8.284;2024-03-23T11:47:31;100057.91;;;11.73;60.31
30708;BME280;17458;48.958;8.284;2024-03-23T11:50:21;100053.28;;;11.69;60.68
30708;BME280;17458;48.958;8.284;2024-03-23T11:53:21;100044.53;;;11.72;60.46
30708;BME280;17458;48.958;8.284;2024-03-23T11:56:11;100045.84;;;11.61;61.48
30708;BME280;17458;48.958;8.284;2024-03-23T11:58:55;100042.09;;;12.45;60.49
30708;BME280;17458;48.958;8.284;2024-03-23T12:01:38;100030.88;;;12.54;57.45
30708;BME280;17458;48.958;8.284;2024-03-23T12:04:29;100034.50;;;12.56;57.05
30708;BME280;17458;48.958;8.284;2024-03-23T12:07:17;100025.00;;;12.62;56.11
30708;BME280;17458;48.958;8.284;2024-03-23T12:10:06;100026.66;;;12.84;52.26
30708;BME280;17458;48.958;8.284;2024-03-23T12:13:02;99999.75;;;13.54;49.40
30708;BME280;17458;48.958;8.284;2024-03-23T12:15:49;99988.47;;;13.36;46.85
30708;BME280;17458;48.958;8.284;2024-03-23T12:18:34;99990.72;;;13.24;45.51
30708;BME280;17458;48.958;8.284;2024-03-23T12:21:18;99995.22;;;13.25;46.21
30708;BME280;17458;48.958;8.284;2024-03-23T12:24:02;100003.16;;;12.72;46.14
30708;BME280;17458;48.958;8.284;2024-03-23T12:26:47;100002.75;;;13.12;49.32
30708;BME280;17458;48.958;8.284;2024-03-23T12:29:34;99995.47;;;13.59;53.34
30708;BME280;17458;48.958;8.284;2024-03-23T12:32:18;99998.09;;;13.58;53.90
30708;BME280;17458;48.958;8.284;2024-03-23T12:35:02;100004.78;;;12.94;54.31
30708;BME280;17458;48.958;8.284;2024-03-23T12:37:47;99993.09;;;12.89;44.91
30708;BME280;17458;48.958;8.284;2024-03-23T12:40:31;99995.03;;;12.95;43.55
30708;BME280;17458;48.958;8.284;2024-03-23T12:43:15;100029.19;;;12.81;42.71
30708;BME280;17458;48.958;8.284;2024-03-23T12:45:59;100061.16;;;11.87;48.57
30708;BME280;17458;48.958;8.284;2024-03-23T12:48:44;100073.63;;;10.09;54.50
30708;BME280;17458;48.958;8.284;2024-03-23T12:51:29;100059.75;;;9.59;56.80
30708;BME280;17458;48.958;8.284;2024-03-23T12:54:13;100055.44;;;9.26;59.82
30708;BME280;17458;48.958;8.284;2024-03-23T12:56:57;100063.44;;;9.10;60.61
30708;BME280;17458;48.958;8.284;2024-03-23T12:59:41;100047.78;;;9.32;59.94
30708;BME280;17458;48.958;8.284;2024-03-23T13:02:25;100047.69;;;9.31;59.31
30708;BME280;17458;48.958;8.284;2024-03-23T13:05:09;100049.59;;;9.51;58.53
30708;BME280;17458;48.958;8.284;2024-03-23T13:07:53;100038.38;;;9.56;58.68
30708;BME280;17458;48.958;8.284;2024-03-23T13:10:36;100036.94;;;9.63;57.19
30708;BME280;17458;48.958;8.284;2024-03-23T13:13:20;100041.50;;;10.03;56.64
30708;BME280;17458;48.958;8.284;2024-03-23T13:16:05;100038.84;;;10.03;56.61
30708;BME280;17458;48.958;8.284;2024-03-23T13:18:49;100031.09;;;11.05;54.05
30708;BME280;17458;48.958;8.284;2024-03-23T13:21:33;100031.88;;;11.44;54.06
30708;BME280;17458;48.958;8.284;2024-03-23T13:24:17;100047.19;;;11.08;53.75
30708;BME280;17458;48.958;8.284;2024-03-23T13:27:01;100042.16;;;10.74;53.80
30708;BME280;17458;48.958;8.284;2024-03-23T13:29:45;100035.63;;;10.47;55.28
30708;BME280;17458;48.958;8.284;2024-03-23T13:32:30;100046.94;;;10.23;56.34
30708;BME280;17458;48.958;8.284;2024-03-23T13:35:14;100062.41;;;10.53;57.53
30708;BME280;17458;48.958;8.284;2024-03-23T13:37:58;100042.97;;;10.52;54.46
30708;BME280;17458;48.958;8.284;2024-03-23T13:40:55;100041.81;;;10.67;54.51
30708;BME280;17458;48.958;8.284;2024-03-23T13:43:40;100024.44;;;11.15;52.78
30708;BME280;17458;48.958;8.284;2024-03-23T13:46:24;100048.69;;;11.22;54.25
30708;BME280;17458;48.958;8.284;2024-03-23T13:49:28;100051.59;;;11.49;52.43
30708;BME280;17458;48.958;8.284;2024-03-23T13:52:13;100044.97;;;11.19;52.88
30708;BME280;17458;48.958;8.284;2024-03-23T13:54:57;100051.41;;;11.88;51.51
30708;BME280;17458;48.958;8.284;2024-03-23T13:57:40;100050.53;;;12.11;52.17
30708;BME280;17458;48.958;8.284;2024-03-23T14:00:24;100054.25;;;12.38;51.30
30708;BME280;17458;48.958;8.284;2024-03-23T14:03:09;100046.31;;;10.88;51.45
30708;BME280;17458;48.958;8.284;2024-03-23T14:05:58;100045.84;;;10.78;54.05
30708;BME280;17458;48.958;8.284;2024-03-23T14:08:42;100051.41;;;10.63;55.16
30708;BME280;17458;48.958;8.284;2024-03-23T14:11:27;100075.63;;;9.95;56.75
30708;BME280;17458;48.958;8.284;2024-03-23T14:14:12;100079.72;;;9.71;61.42
30708;BME280;17458;48.958;8.284;2024-03-23T14:16:56;100071.50;;;9.47;62.01
30708;BME280;17458;48.958;8.284;2024-03-23T14:19:40;100047.94;;;9.35;62.15
30708;BME280;17458;48.958;8.284;2024-03-23T14:22:24;100039.38;;;9.41;62.54
30708;BME280;17458;48.958;8.284;2024-03-23T14:25:08;100016.28;;;9.03;61.90
30708;BME280;17458;48.958;8.284;2024-03-23T14:27:52;99986.75;;;9.13;62.32
30708;BME280;17458;48.958;8.284;2024-03-23T14:30:36;99982.59;;;9.53;60.90
30708;BME280;17458;48.958;8.284;2024-03-23T14:33:20;99977.88;;;10.62;57.49
30708;BME280;17458;48.958;8.284;2024-03-23T14:36:05;99981.19;;;10.98;56.57
30708;BME280;17458;48.958;8.284;2024-03-23T14:38:49;99979.78;;;11.06;53.47
30708;BME280;17458;48.958;8.284;2024-03-23T14:41:33;99986.91;;;10.86;53.61
30708;BME280;17458;48.958;8.284;2024-03-23T14:44:17;99977.78;;;10.80;52.02
30708;BME280;17458;48.958;8.284;2024-03-23T14:47:01;99976.84;;;11.00;52.98
30708;BME280;17458;48.958;8.284;2024-03-23T14:49:45;99986.44;;;10.96;53.51
30708;BME280;17458;48.958;8.284;2024-03-23T14:52:34;99981.16;;;10.56;53.55
30708;BME280;17458;48.958;8.284;2024-03-23T14:55:18;99980.31;;;10.57;54.27
30708;BME280;17458;48.958;8.284;2024-03-23T14:58:03;99984.78;;;10.58;54.54
30708;BME280;17458;48.958;8.284;2024-03-23T15:00:47;99985.16;;;10.66;54.86
30708;BME280;17458;48.958;8.284;2024-03-23T15:03:32;99980.41;;;11.21;55.21
30708;BME280;17458;48.958;8.284;2024-03-23T15:06:16;99967.34;;;11.05;56.60
30708;BME280;17458;48.958;8.284;2024-03-23T15:09:00;99969.72;;;11.20;57.26
30708;BME280;17458;48.958;8.284;2024-03-23T15:11:44;99970.47;;;10.55;57.97
30708;BME280;17458;48.958;8.284;2024-03-23T15:14:27;99970.59;;;10.77;57.61
30708;BME280;17458;48.958;8.284;2024-03-23T15:17:11;99968.25;;;10.64;57.78
30708;BME280;17458;48.958;8.284;2024-03-23T15:19:55;99953.63;;;10.54;58.05
30708;BME280;17458;48.958;8.284;2024-03-23T15:22:39;99959.38;;;10.63;58.88
30708;BME280;17458;48.958;8.284;2024-03-23T15:25:23;99955.72;;;10.61;59.20
30708;BME280;17458;48.958;8.284;2024-03-23T15:28:10;99944.50;;;10.48;59.12